FDX1011 KEWR-KBOS
Flight info
| Callsign | FDX1011 |
|---|---|
| Flight time | 0h 37m |
| Altitude | 21000 |
| Route | MERIT ROBUC3 |
| Aircraft | B77L/H-SDE1E2E3FGHIJ2J3J4J5M1RWXY/LB1D1 |
Departure
| Time | 2026-05-08 05:34 |
|---|---|
| Airport | Newark Liberty International Airport (KEWR) |
Arrival
| Time | 2026-05-08 06:11 |
|---|---|
| Airport | Boston Logan International Airport (KBOS) |
| Time | Latitude | Longitude | Altitude | Speed | Heading |
|---|---|---|---|---|---|
| 2026-05-08 04:38 | 40.67658 | -74.18297 | 27 ft | 0 kts | 206° |
| 2026-05-08 05:26 | 40.67659 | -74.18296 | 27 ft | 2 kts | 206° |
| 2026-05-08 05:26 | 40.67683 | -74.18281 | 24 ft | 4 kts | 206° |
| 2026-05-08 05:27 | 40.67702 | -74.18269 | 26 ft | 4 kts | 192° |
| 2026-05-08 05:27 | 40.67726 | -74.18271 | 26 ft | 4 kts | 138° |
| 2026-05-08 05:27 | 40.67739 | -74.18297 | 24 ft | 4 kts | 116° |
| 2026-05-08 05:27 | 40.67746 | -74.18317 | 24 ft | 0 kts | 116° |
| 2026-05-08 05:30 | 40.67740 | -74.18302 | 24 ft | 5 kts | 116° |
| 2026-05-08 05:31 | 40.67724 | -74.18257 | 26 ft | 6 kts | 116° |
| 2026-05-08 05:31 | 40.67707 | -74.18211 | 27 ft | 6 kts | 116° |
| 2026-05-08 05:31 | 40.67689 | -74.18165 | 27 ft | 6 kts | 120° |
| 2026-05-08 05:31 | 40.67660 | -74.18132 | 27 ft | 6 kts | 148° |
| 2026-05-08 05:32 | 40.67633 | -74.18096 | 27 ft | 6 kts | 131° |
| 2026-05-08 05:32 | 40.67607 | -74.18058 | 25 ft | 6 kts | 131° |
| 2026-05-08 05:32 | 40.67582 | -74.18020 | 27 ft | 6 kts | 129° |
| 2026-05-08 05:32 | 40.67563 | -74.17976 | 27 ft | 6 kts | 109° |
| 2026-05-08 05:33 | 40.67573 | -74.17929 | 27 ft | 6 kts | 46° |
| 2026-05-08 05:33 | 40.67617 | -74.17897 | 27 ft | 14 kts | 27° |
| 2026-05-08 05:33 | 40.67819 | -74.17769 | 26 ft | 55 kts | 25° |
| 2026-05-08 05:33 | 40.68389 | -74.17407 | 27 ft | 124 kts | 25° |
| 2026-05-08 05:34 | 40.69347 | -74.16801 | 31 ft | 178 kts | 26° |
| 2026-05-08 05:34 | 40.70491 | -74.16053 | 465 ft | 184 kts | 24° |
| 2026-05-08 05:34 | 40.71579 | -74.15192 | 1082 ft | 185 kts | 40° |
| 2026-05-08 05:34 | 40.72487 | -74.14038 | 1808 ft | 181 kts | 41° |
| 2026-05-08 05:35 | 40.73429 | -74.12876 | 2306 ft | 193 kts | 41° |
| 2026-05-08 05:35 | 40.74465 | -74.11606 | 2570 ft | 215 kts | 41° |
| 2026-05-08 05:35 | 40.75667 | -74.10250 | 2774 ft | 239 kts | 28° |
| 2026-05-08 05:35 | 40.77305 | -74.09792 | 3214 ft | 249 kts | 348° |
| 2026-05-08 05:36 | 40.78843 | -74.10817 | 3877 ft | 255 kts | 311° |
| 2026-05-08 05:36 | 40.79617 | -74.12875 | 4743 ft | 250 kts | 281° |
| 2026-05-08 05:36 | 40.79943 | -74.15125 | 5467 ft | 251 kts | 288° |
| 2026-05-08 05:36 | 40.80969 | -74.17011 | 6144 ft | 261 kts | 321° |
| 2026-05-08 05:37 | 40.82638 | -74.17988 | 6991 ft | 268 kts | 346° |
| 2026-05-08 05:37 | 40.84519 | -74.17989 | 7808 ft | 277 kts | 8° |
| 2026-05-08 05:37 | 40.86315 | -74.16952 | 8546 ft | 291 kts | 32° |
| 2026-05-08 05:37 | 40.87728 | -74.15015 | 9236 ft | 302 kts | 51° |
| 2026-05-08 05:38 | 40.88930 | -74.12688 | 9896 ft | 311 kts | 53° |
| 2026-05-08 05:38 | 40.90131 | -74.10256 | 10393 ft | 324 kts | 54° |
| 2026-05-08 05:38 | 40.91405 | -74.07656 | 10574 ft | 349 kts | 54° |
| 2026-05-08 05:38 | 40.92778 | -74.04868 | 10775 ft | 374 kts | 54° |
| 2026-05-08 05:39 | 40.94236 | -74.01925 | 11209 ft | 390 kts | 54° |
| 2026-05-08 05:39 | 40.95753 | -73.98876 | 11942 ft | 399 kts | 53° |
| 2026-05-08 05:39 | 40.97293 | -73.95796 | 12865 ft | 404 kts | 53° |
| 2026-05-08 05:39 | 40.98836 | -73.92721 | 13771 ft | 409 kts | 53° |
| 2026-05-08 05:40 | 41.00449 | -73.89516 | 14479 ft | 418 kts | 53° |
| 2026-05-08 05:40 | 41.02067 | -73.86307 | 15102 ft | 429 kts | 53° |
| 2026-05-08 05:40 | 41.03740 | -73.82985 | 15782 ft | 438 kts | 53° |
| 2026-05-08 05:40 | 41.05442 | -73.79598 | 16503 ft | 445 kts | 53° |
| 2026-05-08 05:41 | 41.07172 | -73.76154 | 17238 ft | 452 kts | 53° |
| 2026-05-08 05:41 | 41.08928 | -73.72653 | 17906 ft | 460 kts | 53° |
| 2026-05-08 05:41 | 41.10718 | -73.69082 | 18504 ft | 469 kts | 53° |
| 2026-05-08 05:41 | 41.12542 | -73.65439 | 19083 ft | 477 kts | 53° |
| 2026-05-08 05:42 | 41.14399 | -73.61724 | 19465 ft | 488 kts | 54° |
| 2026-05-08 05:42 | 41.16292 | -73.57934 | 19985 ft | 496 kts | 54° |
| 2026-05-08 05:42 | 41.18212 | -73.54083 | 20619 ft | 502 kts | 54° |
| 2026-05-08 05:42 | 41.20143 | -73.50203 | 21226 ft | 508 kts | 54° |
| 2026-05-08 05:43 | 41.22094 | -73.46279 | 22018 ft | 510 kts | 54° |
| 2026-05-08 05:43 | 41.24022 | -73.42396 | 22857 ft | 510 kts | 55° |
| 2026-05-08 05:43 | 41.25977 | -73.38455 | 23615 ft | 512 kts | 55° |
| 2026-05-08 05:43 | 41.27938 | -73.34497 | 24312 ft | 511 kts | 54° |
| 2026-05-08 05:44 | 41.29892 | -73.30547 | 24878 ft | 513 kts | 54° |
| 2026-05-08 05:44 | 41.31862 | -73.26563 | 24892 ft | 515 kts | 55° |
| 2026-05-08 05:44 | 41.33822 | -73.22590 | 24903 ft | 512 kts | 55° |
| 2026-05-08 05:44 | 41.35764 | -73.18651 | 24884 ft | 508 kts | 55° |
| 2026-05-08 05:45 | 41.37632 | -73.14656 | 24923 ft | 508 kts | 63° |
| 2026-05-08 05:45 | 41.38804 | -73.10250 | 24906 ft | 504 kts | 84° |
| 2026-05-08 05:45 | 41.39229 | -73.05655 | 24913 ft | 500 kts | 88° |
| 2026-05-08 05:45 | 41.39633 | -73.01050 | 24911 ft | 503 kts | 87° |
| 2026-05-08 05:46 | 41.40079 | -72.96404 | 24903 ft | 507 kts | 86° |
| 2026-05-08 05:46 | 41.40558 | -72.91751 | 24863 ft | 508 kts | 86° |
| 2026-05-08 05:46 | 41.41053 | -72.87090 | 24901 ft | 508 kts | 86° |
| 2026-05-08 05:46 | 41.41554 | -72.82422 | 24897 ft | 509 kts | 86° |
| 2026-05-08 05:47 | 41.42054 | -72.77766 | 24887 ft | 508 kts | 86° |
| 2026-05-08 05:47 | 41.42546 | -72.73162 | 24884 ft | 507 kts | 86° |
| 2026-05-08 05:47 | 41.43039 | -72.68500 | 24873 ft | 506 kts | 86° |
| 2026-05-08 05:47 | 41.43527 | -72.63865 | 24875 ft | 504 kts | 86° |
| 2026-05-08 05:48 | 41.44010 | -72.59237 | 24838 ft | 502 kts | 86° |
| 2026-05-08 05:48 | 41.44489 | -72.54632 | 24870 ft | 501 kts | 86° |
| 2026-05-08 05:48 | 41.44966 | -72.50031 | 24867 ft | 500 kts | 86° |
| 2026-05-08 05:48 | 41.45436 | -72.45487 | 24865 ft | 489 kts | 86° |
| 2026-05-08 05:49 | 41.45896 | -72.41042 | 24760 ft | 481 kts | 87° |
| 2026-05-08 05:49 | 41.46347 | -72.36618 | 24270 ft | 481 kts | 87° |
| 2026-05-08 05:49 | 41.46794 | -72.32222 | 23898 ft | 478 kts | 87° |
| 2026-05-08 05:49 | 41.47239 | -72.27844 | 23516 ft | 475 kts | 87° |
| 2026-05-08 05:50 | 41.47827 | -72.23500 | 23026 ft | 476 kts | 80° |
| 2026-05-08 05:50 | 41.48751 | -72.19261 | 22600 ft | 475 kts | 74° |
| 2026-05-08 05:50 | 41.49952 | -72.15160 | 22115 ft | 475 kts | 66° |
| 2026-05-08 05:50 | 41.51394 | -72.11268 | 21660 ft | 473 kts | 64° |
| 2026-05-08 05:51 | 41.52886 | -72.07354 | 21186 ft | 471 kts | 64° |
| 2026-05-08 05:51 | 41.54343 | -72.03450 | 20724 ft | 469 kts | 65° |
| 2026-05-08 05:51 | 41.55755 | -71.99536 | 20257 ft | 466 kts | 68° |
| 2026-05-08 05:51 | 41.56978 | -71.95551 | 19794 ft | 459 kts | 71° |
| 2026-05-08 05:52 | 41.58127 | -71.91631 | 19354 ft | 447 kts | 71° |
| 2026-05-08 05:52 | 41.59256 | -71.87816 | 18882 ft | 436 kts | 71° |
| 2026-05-08 05:52 | 41.60364 | -71.84093 | 18459 ft | 425 kts | 71° |
| 2026-05-08 05:52 | 41.61438 | -71.80468 | 18015 ft | 417 kts | 71° |
| 2026-05-08 05:53 | 41.62502 | -71.76860 | 17629 ft | 414 kts | 71° |
| 2026-05-08 05:53 | 41.63549 | -71.73300 | 17276 ft | 409 kts | 70° |
| 2026-05-08 05:53 | 41.64587 | -71.69770 | 16879 ft | 406 kts | 70° |
| 2026-05-08 05:53 | 41.65616 | -71.66269 | 16472 ft | 404 kts | 70° |
| 2026-05-08 05:54 | 41.66640 | -71.62786 | 16079 ft | 400 kts | 70° |
| 2026-05-08 05:54 | 41.67654 | -71.59330 | 15682 ft | 397 kts | 69° |
| 2026-05-08 05:54 | 41.68643 | -71.55954 | 15388 ft | 389 kts | 69° |
| 2026-05-08 05:54 | 41.69615 | -71.52631 | 14947 ft | 378 kts | 69° |
| 2026-05-08 05:55 | 41.70559 | -71.49399 | 14545 ft | 367 kts | 69° |
| 2026-05-08 05:55 | 41.71472 | -71.46272 | 14194 ft | 355 kts | 69° |
| 2026-05-08 05:55 | 41.72374 | -71.43210 | 13853 ft | 352 kts | 66° |
| 2026-05-08 05:55 | 41.73474 | -71.40286 | 13468 ft | 349 kts | 59° |
| 2026-05-08 05:56 | 41.74714 | -71.37505 | 13106 ft | 346 kts | 57° |
| 2026-05-08 05:56 | 41.75946 | -71.34761 | 12734 ft | 342 kts | 57° |
| 2026-05-08 05:56 | 41.77126 | -71.32055 | 12387 ft | 338 kts | 58° |
| 2026-05-08 05:56 | 41.78294 | -71.29333 | 12039 ft | 335 kts | 58° |
| 2026-05-08 05:57 | 41.79441 | -71.26644 | 11731 ft | 331 kts | 58° |
| 2026-05-08 05:57 | 41.80576 | -71.23979 | 11395 ft | 327 kts | 57° |
| 2026-05-08 05:57 | 41.81698 | -71.21343 | 11070 ft | 323 kts | 57° |
| 2026-05-08 05:57 | 41.82818 | -71.18746 | 10752 ft | 320 kts | 56° |
| 2026-05-08 05:58 | 41.83948 | -71.16201 | 10423 ft | 316 kts | 55° |
| 2026-05-08 05:58 | 41.85072 | -71.13684 | 10106 ft | 312 kts | 55° |
| 2026-05-08 05:58 | 41.86168 | -71.11223 | 9784 ft | 304 kts | 54° |
| 2026-05-08 05:58 | 41.87245 | -71.08803 | 9451 ft | 300 kts | 54° |
| 2026-05-08 05:59 | 41.88310 | -71.06404 | 9112 ft | 296 kts | 54° |
| 2026-05-08 05:59 | 41.89354 | -71.04050 | 8800 ft | 291 kts | 54° |
| 2026-05-08 05:59 | 41.90380 | -71.01731 | 8523 ft | 286 kts | 54° |
| 2026-05-08 05:59 | 41.91387 | -70.99451 | 8223 ft | 281 kts | 53° |
| 2026-05-08 06:00 | 41.92366 | -70.97236 | 7956 ft | 278 kts | 53° |
| 2026-05-08 06:00 | 41.93407 | -70.95095 | 7835 ft | 273 kts | 49° |
| 2026-05-08 06:00 | 41.94501 | -70.92996 | 7693 ft | 276 kts | 49° |
| 2026-05-08 06:00 | 41.95608 | -70.90875 | 7580 ft | 278 kts | 49° |
| 2026-05-08 06:01 | 41.96716 | -70.88735 | 7429 ft | 278 kts | 49° |
| 2026-05-08 06:01 | 41.97811 | -70.86603 | 7287 ft | 275 kts | 50° |
| 2026-05-08 06:01 | 41.98886 | -70.84501 | 7142 ft | 271 kts | 50° |
| 2026-05-08 06:01 | 41.99941 | -70.82435 | 6989 ft | 263 kts | 50° |
| 2026-05-08 06:02 | 42.00955 | -70.80464 | 6856 ft | 249 kts | 46° |
| 2026-05-08 06:02 | 42.02097 | -70.78784 | 6738 ft | 240 kts | 38° |
| 2026-05-08 06:02 | 42.03308 | -70.77242 | 6622 ft | 239 kts | 37° |
| 2026-05-08 06:02 | 42.04520 | -70.75697 | 6524 ft | 241 kts | 37° |
| 2026-05-08 06:03 | 42.05726 | -70.74132 | 6403 ft | 242 kts | 38° |
| 2026-05-08 06:03 | 42.06933 | -70.72546 | 6278 ft | 243 kts | 38° |
| 2026-05-08 06:03 | 42.08129 | -70.70959 | 6154 ft | 238 kts | 38° |
| 2026-05-08 06:03 | 42.09268 | -70.69442 | 6089 ft | 228 kts | 38° |
| 2026-05-08 06:04 | 42.10449 | -70.67998 | 5814 ft | 223 kts | 25° |
| 2026-05-08 06:04 | 42.11854 | -70.67490 | 5614 ft | 208 kts | 351° |
| 2026-05-08 06:04 | 42.13204 | -70.68055 | 5425 ft | 203 kts | 329° |
| 2026-05-08 06:04 | 42.14302 | -70.69230 | 5195 ft | 203 kts | 314° |
| 2026-05-08 06:05 | 42.15254 | -70.70632 | 5080 ft | 201 kts | 312° |
| 2026-05-08 06:05 | 42.16183 | -70.72043 | 5011 ft | 204 kts | 312° |
| 2026-05-08 06:05 | 42.17141 | -70.73497 | 4846 ft | 208 kts | 312° |
| 2026-05-08 06:05 | 42.18096 | -70.74944 | 4809 ft | 205 kts | 312° |
| 2026-05-08 06:06 | 42.19040 | -70.76378 | 4723 ft | 203 kts | 311° |
| 2026-05-08 06:06 | 42.19979 | -70.77817 | 4458 ft | 205 kts | 312° |
| 2026-05-08 06:06 | 42.20934 | -70.79265 | 4152 ft | 208 kts | 311° |
| 2026-05-08 06:06 | 42.21881 | -70.80741 | 3920 ft | 208 kts | 310° |
| 2026-05-08 06:07 | 42.22826 | -70.82212 | 3663 ft | 205 kts | 313° |
| 2026-05-08 06:07 | 42.23802 | -70.83596 | 3424 ft | 201 kts | 315° |
| 2026-05-08 06:07 | 42.24774 | -70.84922 | 3134 ft | 197 kts | 315° |
| 2026-05-08 06:07 | 42.25749 | -70.86214 | 2761 ft | 196 kts | 316° |
| 2026-05-08 06:08 | 42.26701 | -70.87478 | 2563 ft | 184 kts | 316° |
| 2026-05-08 06:08 | 42.27565 | -70.88621 | 2322 ft | 171 kts | 316° |
| 2026-05-08 06:08 | 42.28392 | -70.89724 | 1974 ft | 161 kts | 316° |
| 2026-05-08 06:08 | 42.29157 | -70.90771 | 1722 ft | 153 kts | 315° |
| 2026-05-08 06:09 | 42.29911 | -70.91777 | 1470 ft | 151 kts | 316° |
| 2026-05-08 06:09 | 42.30416 | -70.92438 | 1387 ft | 153 kts | 316° |
| 2026-05-08 06:09 | 42.31186 | -70.93458 | 1256 ft | 156 kts | 315° |
| 2026-05-08 06:09 | 42.31940 | -70.94479 | 1106 ft | 149 kts | 315° |
| 2026-05-08 06:10 | 42.32662 | -70.95431 | 853 ft | 142 kts | 315° |
| 2026-05-08 06:10 | 42.33376 | -70.96358 | 648 ft | 143 kts | 315° |
| 2026-05-08 06:10 | 42.34312 | -70.97626 | 378 ft | 144 kts | 314° |
| 2026-05-08 06:10 | 42.34785 | -70.98251 | 262 ft | 144 kts | 315° |
| 2026-05-08 06:11 | 42.35491 | -70.99197 | 53 ft | 139 kts | 315° |
| 2026-05-08 06:11 | 42.36122 | -71.00047 | 33 ft | 110 kts | 316° |
| 2026-05-08 06:11 | 42.36560 | -71.00627 | 34 ft | 66 kts | 315° |
| 2026-05-08 06:11 | 42.36809 | -71.00964 | 33 ft | 27 kts | 315° |
| 2026-05-08 06:12 | 42.36896 | -71.01080 | 30 ft | 24 kts | 315° |
| 2026-05-08 06:12 | 42.36936 | -71.01205 | 29 ft | 13 kts | 256° |
| 2026-05-08 06:12 | 42.36925 | -71.01303 | 30 ft | 9 kts | 289° |
| 2026-05-08 06:12 | 42.36964 | -71.01372 | 31 ft | 9 kts | 314° |
| 2026-05-08 06:13 | 42.37009 | -71.01434 | 30 ft | 9 kts | 314° |
| 2026-05-08 06:13 | 42.37055 | -71.01496 | 31 ft | 9 kts | 315° |
| 2026-05-08 06:13 | 42.37100 | -71.01558 | 33 ft | 9 kts | 315° |
| 2026-05-08 06:13 | 42.37146 | -71.01620 | 34 ft | 9 kts | 315° |
| 2026-05-08 06:14 | 42.37192 | -71.01682 | 33 ft | 9 kts | 315° |
| 2026-05-08 06:14 | 42.37239 | -71.01745 | 33 ft | 9 kts | 315° |
| 2026-05-08 06:14 | 42.37286 | -71.01807 | 34 ft | 9 kts | 315° |
| 2026-05-08 06:14 | 42.37328 | -71.01862 | 33 ft | 7 kts | 322° |
| 2026-05-08 06:15 | 42.37374 | -71.01841 | 33 ft | 8 kts | 41° |
| 2026-05-08 06:15 | 42.37406 | -71.01786 | 34 ft | 8 kts | 74° |
| 2026-05-08 06:15 | 42.37369 | -71.01704 | 35 ft | 22 kts | 134° |
| 2026-05-08 06:15 | 42.37143 | -71.01404 | 33 ft | 86 kts | 135° |
| 2026-05-08 06:16 | 42.36455 | -71.00489 | 45 ft | 189 kts | 135° |
| 2026-05-08 06:16 | 42.35505 | -70.99215 | 383 ft | 188 kts | 136° |
| 2026-05-08 06:16 | 42.34595 | -70.97995 | 749 ft | 185 kts | 135° |
| 2026-05-08 06:16 | 42.33718 | -70.96659 | 1098 ft | 193 kts | 118° |
| 2026-05-08 06:17 | 42.33237 | -70.93102 | 1917 ft | 197 kts | 81° |
| 2026-05-08 06:17 | 42.33365 | -70.91243 | 2228 ft | 200 kts | 79° |
| 2026-05-08 06:17 | 42.33517 | -70.89346 | 2369 ft | 205 kts | 78° |
| 2026-05-08 06:18 | 42.33623 | -70.87448 | 2433 ft | 206 kts | 89° |
| 2026-05-08 06:18 | 42.33176 | -70.85595 | 2189 ft | 219 kts | 128° |
| 2026-05-08 06:18 | 42.31918 | -70.84436 | 2041 ft | 219 kts | 165° |
| 2026-05-08 06:18 | 42.30458 | -70.84344 | 2051 ft | 208 kts | 201° |
| 2026-05-08 06:19 | 42.29261 | -70.85288 | 2011 ft | 191 kts | 235° |
| 2026-05-08 06:19 | 42.28737 | -70.86796 | 2009 ft | 172 kts | 269° |
| 2026-05-08 06:19 | 42.28860 | -70.88308 | 2154 ft | 155 kts | 288° |
| 2026-05-08 06:19 | 42.29172 | -70.89677 | 2109 ft | 151 kts | 295° |
| 2026-05-08 06:20 | 42.29667 | -70.90920 | 1906 ft | 149 kts | 306° |
| 2026-05-08 06:20 | 42.30253 | -70.92026 | 1740 ft | 142 kts | 308° |
| 2026-05-08 06:20 | 42.30892 | -70.93045 | 1389 ft | 143 kts | 314° |
| 2026-05-08 06:20 | 42.31574 | -70.93985 | 1175 ft | 138 kts | 316° |
| 2026-05-08 06:21 | 42.32264 | -70.94868 | 942 ft | 139 kts | 315° |
| 2026-05-08 06:21 | 42.32940 | -70.95803 | 741 ft | 139 kts | 314° |
| 2026-05-08 06:21 | 42.33634 | -70.96724 | 574 ft | 142 kts | 315° |
| 2026-05-08 06:21 | 42.34340 | -70.97663 | 427 ft | 143 kts | 314° |
| 2026-05-08 06:22 | 42.35039 | -70.98596 | 207 ft | 138 kts | 316° |
| 2026-05-08 06:22 | 42.35711 | -70.99493 | 35 ft | 130 kts | 314° |
| 2026-05-08 06:22 | 42.36277 | -71.00250 | 31 ft | 95 kts | 315° |
| 2026-05-08 06:22 | 42.36650 | -71.00747 | 36 ft | 57 kts | 315° |
| 2026-05-08 06:23 | 42.36834 | -71.00996 | 32 ft | 15 kts | 314° |
| 2026-05-08 06:23 | 42.36919 | -71.01114 | 29 ft | 12 kts | 306° |
| 2026-05-08 06:23 | 42.36929 | -71.01221 | 29 ft | 12 kts | 253° |
| 2026-05-08 06:23 | 42.36876 | -71.01247 | 29 ft | 9 kts | 160° |